sensor_id;sensor_type;location;lat;lon;timestamp;P1;durP1;ratioP1;P2;durP2;ratioP2
12707;SDS011;6418;50.824;4.718;2023-02-17T00:00:57;16.80;;;11.60;;
12707;SDS011;6418;50.824;4.718;2023-02-17T00:03:25;17.20;;;11.53;;
12707;SDS011;6418;50.824;4.718;2023-02-17T00:05:52;17.27;;;11.37;;
12707;SDS011;6418;50.824;4.718;2023-02-17T00:08:19;17.33;;;11.40;;
12707;SDS011;6418;50.824;4.718;2023-02-17T00:10:53;16.13;;;10.73;;
12707;SDS011;6418;50.824;4.718;2023-02-17T00:13:21;16.30;;;10.80;;
12707;SDS011;6418;50.824;4.718;2023-02-17T00:15:49;16.40;;;9.77;;
12707;SDS011;6418;50.824;4.718;2023-02-17T00:18:16;15.30;;;10.07;;
12707;SDS011;6418;50.824;4.718;2023-02-17T00:20:43;15.47;;;10.10;;
12707;SDS011;6418;50.824;4.718;2023-02-17T00:23:10;16.17;;;9.93;;
12707;SDS011;6418;50.824;4.718;2023-02-17T00:25:37;14.43;;;9.17;;
12707;SDS011;6418;50.824;4.718;2023-02-17T00:28:04;15.07;;;9.30;;
12707;SDS011;6418;50.824;4.718;2023-02-17T00:30:31;14.40;;;8.97;;
12707;SDS011;6418;50.824;4.718;2023-02-17T00:33:01;13.93;;;8.87;;
12707;SDS011;6418;50.824;4.718;2023-02-17T00:35:28;12.83;;;7.80;;
12707;SDS011;6418;50.824;4.718;2023-02-17T00:37:54;14.57;;;8.03;;
12707;SDS011;6418;50.824;4.718;2023-02-17T00:40:21;14.37;;;8.70;;
12707;SDS011;6418;50.824;4.718;2023-02-17T00:42:48;12.40;;;8.27;;
12707;SDS011;6418;50.824;4.718;2023-02-17T00:45:15;13.90;;;8.60;;
12707;SDS011;6418;50.824;4.718;2023-02-17T00:47:43;12.83;;;7.67;;
12707;SDS011;6418;50.824;4.718;2023-02-17T00:50:11;11.77;;;7.67;;
12707;SDS011;6418;50.824;4.718;2023-02-17T00:52:38;12.70;;;7.90;;
12707;SDS011;6418;50.824;4.718;2023-02-17T00:55:05;13.17;;;8.00;;
12707;SDS011;6418;50.824;4.718;2023-02-17T00:57:32;12.63;;;7.40;;
12707;SDS011;6418;50.824;4.718;2023-02-17T00:59:59;11.80;;;7.27;;
12707;SDS011;6418;50.824;4.718;2023-02-17T01:02:26;11.67;;;7.33;;
12707;SDS011;6418;50.824;4.718;2023-02-17T01:04:53;11.90;;;7.03;;
12707;SDS011;6418;50.824;4.718;2023-02-17T01:07:22;12.53;;;7.30;;
12707;SDS011;6418;50.824;4.718;2023-02-17T01:09:49;12.80;;;7.40;;
12707;SDS011;6418;50.824;4.718;2023-02-17T01:12:15;12.27;;;7.30;;
12707;SDS011;6418;50.824;4.718;2023-02-17T01:14:42;12.73;;;7.40;;
12707;SDS011;6418;50.824;4.718;2023-02-17T01:17:09;12.70;;;7.50;;
12707;SDS011;6418;50.824;4.718;2023-02-17T01:19:36;13.20;;;7.87;;
12707;SDS011;6418;50.824;4.718;2023-02-17T01:22:03;13.20;;;8.00;;
12707;SDS011;6418;50.824;4.718;2023-02-17T01:24:31;12.00;;;7.63;;
12707;SDS011;6418;50.824;4.718;2023-02-17T01:26:58;13.80;;;7.73;;
12707;SDS011;6418;50.824;4.718;2023-02-17T01:29:28;11.30;;;7.00;;
12707;SDS011;6418;50.824;4.718;2023-02-17T01:31:56;11.33;;;6.87;;
12707;SDS011;6418;50.824;4.718;2023-02-17T01:34:23;10.17;;;5.90;;
12707;SDS011;6418;50.824;4.718;2023-02-17T01:36:50;9.80;;;5.90;;
12707;SDS011;6418;50.824;4.718;2023-02-17T01:39:17;10.43;;;6.43;;
12707;SDS011;6418;50.824;4.718;2023-02-17T01:41:45;12.13;;;6.50;;
12707;SDS011;6418;50.824;4.718;2023-02-17T01:44:14;10.13;;;6.10;;
12707;SDS011;6418;50.824;4.718;2023-02-17T01:46:42;11.07;;;6.13;;
12707;SDS011;6418;50.824;4.718;2023-02-17T01:49:13;12.77;;;6.07;;
12707;SDS011;6418;50.824;4.718;2023-02-17T01:51:52;10.00;;;6.10;;
12707;SDS011;6418;50.824;4.718;2023-02-17T01:54:24;10.43;;;5.60;;
12707;SDS011;6418;50.824;4.718;2023-02-17T01:57:07;12.43;;;6.03;;
12707;SDS011;6418;50.824;4.718;2023-02-17T01:59:35;9.37;;;5.73;;
12707;SDS011;6418;50.824;4.718;2023-02-17T02:02:02;9.90;;;5.67;;
12707;SDS011;6418;50.824;4.718;2023-02-17T02:04:32;9.97;;;5.40;;
12707;SDS011;6418;50.824;4.718;2023-02-17T02:07:03;9.43;;;5.57;;
12707;SDS011;6418;50.824;4.718;2023-02-17T02:09:36;10.90;;;5.63;;
12707;SDS011;6418;50.824;4.718;2023-02-17T02:12:16;9.70;;;5.30;;
12707;SDS011;6418;50.824;4.718;2023-02-17T02:14:45;8.13;;;4.97;;
12707;SDS011;6418;50.824;4.718;2023-02-17T02:17:14;8.63;;;5.00;;
12707;SDS011;6418;50.824;4.718;2023-02-17T02:20:08;8.83;;;5.30;;
12707;SDS011;6418;50.824;4.718;2023-02-17T02:23:13;9.53;;;5.10;;
12707;SDS011;6418;50.824;4.718;2023-02-17T02:25:58;9.43;;;5.40;;
12707;SDS011;6418;50.824;4.718;2023-02-17T02:28:57;9.80;;;5.50;;
12707;SDS011;6418;50.824;4.718;2023-02-17T02:31:41;10.50;;;5.60;;
12707;SDS011;6418;50.824;4.718;2023-02-17T02:34:19;10.23;;;5.30;;
12707;SDS011;6418;50.824;4.718;2023-02-17T02:36:48;9.63;;;5.20;;
12707;SDS011;6418;50.824;4.718;2023-02-17T02:39:20;10.37;;;5.60;;
12707;SDS011;6418;50.824;4.718;2023-02-17T02:41:51;9.13;;;5.40;;
12707;SDS011;6418;50.824;4.718;2023-02-17T02:44:21;10.33;;;5.83;;
12707;SDS011;6418;50.824;4.718;2023-02-17T02:46:54;9.93;;;5.63;;
12707;SDS011;6418;50.824;4.718;2023-02-17T02:49:24;11.43;;;6.47;;
12707;SDS011;6418;50.824;4.718;2023-02-17T02:51:53;10.17;;;6.03;;
12707;SDS011;6418;50.824;4.718;2023-02-17T02:54:28;10.43;;;5.97;;
12707;SDS011;6418;50.824;4.718;2023-02-17T02:57:11;11.93;;;6.37;;
12707;SDS011;6418;50.824;4.718;2023-02-17T02:59:46;11.27;;;6.23;;
12707;SDS011;6418;50.824;4.718;2023-02-17T03:02:22;12.40;;;5.73;;
12707;SDS011;6418;50.824;4.718;2023-02-17T03:04:58;14.73;;;6.43;;
12707;SDS011;6418;50.824;4.718;2023-02-17T03:07:32;10.73;;;6.33;;
12707;SDS011;6418;50.824;4.718;2023-02-17T03:10:03;11.23;;;6.23;;
12707;SDS011;6418;50.824;4.718;2023-02-17T03:12:31;10.70;;;6.53;;
12707;SDS011;6418;50.824;4.718;2023-02-17T03:14:59;11.17;;;6.40;;
12707;SDS011;6418;50.824;4.718;2023-02-17T03:17:30;11.60;;;6.50;;
12707;SDS011;6418;50.824;4.718;2023-02-17T03:20:01;12.17;;;6.50;;
12707;SDS011;6418;50.824;4.718;2023-02-17T03:22:30;13.10;;;6.67;;
12707;SDS011;6418;50.824;4.718;2023-02-17T03:25:00;11.73;;;6.50;;
12707;SDS011;6418;50.824;4.718;2023-02-17T03:27:27;14.43;;;6.80;;
12707;SDS011;6418;50.824;4.718;2023-02-17T03:29:54;11.83;;;6.50;;
12707;SDS011;6418;50.824;4.718;2023-02-17T03:32:21;12.20;;;6.70;;
12707;SDS011;6418;50.824;4.718;2023-02-17T03:34:48;11.90;;;6.47;;
12707;SDS011;6418;50.824;4.718;2023-02-17T03:37:16;13.33;;;6.97;;
12707;SDS011;6418;50.824;4.718;2023-02-17T03:39:46;12.03;;;7.27;;
12707;SDS011;6418;50.824;4.718;2023-02-17T03:42:12;15.07;;;7.33;;
12707;SDS011;6418;50.824;4.718;2023-02-17T03:44:40;13.27;;;6.80;;
12707;SDS011;6418;50.824;4.718;2023-02-17T03:47:07;12.13;;;6.43;;
12707;SDS011;6418;50.824;4.718;2023-02-17T03:49:34;12.20;;;6.67;;
12707;SDS011;6418;50.824;4.718;2023-02-17T03:52:00;13.30;;;7.20;;
12707;SDS011;6418;50.824;4.718;2023-02-17T03:54:29;12.23;;;6.60;;
12707;SDS011;6418;50.824;4.718;2023-02-17T03:56:56;13.63;;;7.53;;
12707;SDS011;6418;50.824;4.718;2023-02-17T03:59:25;13.93;;;7.40;;
12707;SDS011;6418;50.824;4.718;2023-02-17T04:01:52;13.37;;;7.43;;
12707;SDS011;6418;50.824;4.718;2023-02-17T04:04:19;13.67;;;7.20;;
12707;SDS011;6418;50.824;4.718;2023-02-17T04:06:46;12.90;;;7.10;;
12707;SDS011;6418;50.824;4.718;2023-02-17T04:09:13;13.40;;;7.80;;
12707;SDS011;6418;50.824;4.718;2023-02-17T04:11:41;12.80;;;7.33;;
12707;SDS011;6418;50.824;4.718;2023-02-17T04:14:08;13.03;;;7.73;;
12707;SDS011;6418;50.824;4.718;2023-02-17T04:16:35;14.10;;;8.23;;
12707;SDS011;6418;50.824;4.718;2023-02-17T04:19:03;14.67;;;8.43;;
12707;SDS011;6418;50.824;4.718;2023-02-17T04:21:30;13.07;;;7.90;;
12707;SDS011;6418;50.824;4.718;2023-02-17T04:23:58;14.87;;;8.57;;
12707;SDS011;6418;50.824;4.718;2023-02-17T04:26:26;13.83;;;8.47;;
12707;SDS011;6418;50.824;4.718;2023-02-17T04:28:55;13.47;;;7.90;;
12707;SDS011;6418;50.824;4.718;2023-02-17T04:31:22;14.37;;;8.30;;
12707;SDS011;6418;50.824;4.718;2023-02-17T04:33:49;14.90;;;8.50;;
12707;SDS011;6418;50.824;4.718;2023-02-17T04:36:17;16.17;;;8.73;;
12707;SDS011;6418;50.824;4.718;2023-02-17T04:38:44;15.37;;;8.50;;
12707;SDS011;6418;50.824;4.718;2023-02-17T04:41:11;15.60;;;8.47;;
12707;SDS011;6418;50.824;4.718;2023-02-17T04:43:38;14.57;;;8.77;;
12707;SDS011;6418;50.824;4.718;2023-02-17T04:46:06;15.47;;;8.77;;
12707;SDS011;6418;50.824;4.718;2023-02-17T04:48:35;14.57;;;9.00;;
12707;SDS011;6418;50.824;4.718;2023-02-17T04:51:02;13.93;;;8.83;;
12707;SDS011;6418;50.824;4.718;2023-02-17T04:53:32;15.70;;;8.70;;
12707;SDS011;6418;50.824;4.718;2023-02-17T04:56:02;16.43;;;8.70;;
12707;SDS011;6418;50.824;4.718;2023-02-17T04:58:29;15.43;;;9.00;;
12707;SDS011;6418;50.824;4.718;2023-02-17T05:00:57;15.73;;;8.60;;
12707;SDS011;6418;50.824;4.718;2023-02-17T05:03:26;15.87;;;8.73;;
12707;SDS011;6418;50.824;4.718;2023-02-17T05:05:53;16.20;;;8.40;;
12707;SDS011;6418;50.824;4.718;2023-02-17T05:08:20;14.20;;;8.40;;
12707;SDS011;6418;50.824;4.718;2023-02-17T05:10:47;14.10;;;8.20;;
12707;SDS011;6418;50.824;4.718;2023-02-17T05:13:17;15.43;;;8.23;;
12707;SDS011;6418;50.824;4.718;2023-02-17T05:15:44;13.40;;;8.27;;
12707;SDS011;6418;50.824;4.718;2023-02-17T05:18:12;14.33;;;9.03;;
12707;SDS011;6418;50.824;4.718;2023-02-17T05:20:40;13.87;;;8.40;;
12707;SDS011;6418;50.824;4.718;2023-02-17T05:23:07;13.73;;;8.27;;
12707;SDS011;6418;50.824;4.718;2023-02-17T05:25:34;13.03;;;8.20;;
12707;SDS011;6418;50.824;4.718;2023-02-17T05:28:01;13.17;;;7.93;;
12707;SDS011;6418;50.824;4.718;2023-02-17T05:30:28;15.93;;;8.53;;
12707;SDS011;6418;50.824;4.718;2023-02-17T05:32:55;14.07;;;8.20;;
12707;SDS011;6418;50.824;4.718;2023-02-17T05:35:22;13.70;;;8.53;;
12707;SDS011;6418;50.824;4.718;2023-02-17T05:37:51;14.47;;;8.30;;
12707;SDS011;6418;50.824;4.718;2023-02-17T05:40:18;12.97;;;8.37;;
12707;SDS011;6418;50.824;4.718;2023-02-17T05:42:45;13.87;;;8.50;;
12707;SDS011;6418;50.824;4.718;2023-02-17T05:45:13;14.47;;;8.73;;
12707;SDS011;6418;50.824;4.718;2023-02-17T05:47:40;14.60;;;8.70;;
12707;SDS011;6418;50.824;4.718;2023-02-17T05:50:07;15.50;;;9.17;;
12707;SDS011;6418;50.824;4.718;2023-02-17T05:52:34;15.10;;;9.03;;
12707;SDS011;6418;50.824;4.718;2023-02-17T05:55:03;14.27;;;9.13;;
12707;SDS011;6418;50.824;4.718;2023-02-17T05:57:30;15.20;;;8.93;;
12707;SDS011;6418;50.824;4.718;2023-02-17T05:59:57;15.50;;;9.30;;
12707;SDS011;6418;50.824;4.718;2023-02-17T06:02:24;16.57;;;9.93;;
12707;SDS011;6418;50.824;4.718;2023-02-17T06:04:51;19.37;;;10.67;;
12707;SDS011;6418;50.824;4.718;2023-02-17T06:07:18;16.27;;;10.40;;
12707;SDS011;6418;50.824;4.718;2023-02-17T06:09:46;16.30;;;10.43;;
12707;SDS011;6418;50.824;4.718;2023-02-17T06:12:14;16.13;;;9.77;;
12707;SDS011;6418;50.824;4.718;2023-02-17T06:14:41;18.13;;;9.77;;
12707;SDS011;6418;50.824;4.718;2023-02-17T06:17:08;16.73;;;10.17;;
12707;SDS011;6418;50.824;4.718;2023-02-17T06:19:35;16.07;;;9.87;;
12707;SDS011;6418;50.824;4.718;2023-02-17T06:22:02;16.20;;;9.87;;
12707;SDS011;6418;50.824;4.718;2023-02-17T06:24:29;18.60;;;10.97;;
12707;SDS011;6418;50.824;4.718;2023-02-17T06:26:57;19.67;;;11.73;;
12707;SDS011;6418;50.824;4.718;2023-02-17T06:29:25;17.97;;;10.47;;
12707;SDS011;6418;50.824;4.718;2023-02-17T06:31:52;16.83;;;10.53;;
12707;SDS011;6418;50.824;4.718;2023-02-17T06:34:19;16.33;;;9.87;;
12707;SDS011;6418;50.824;4.718;2023-02-17T06:36:46;17.90;;;10.30;;
12707;SDS011;6418;50.824;4.718;2023-02-17T06:39:13;18.83;;;10.93;;
12707;SDS011;6418;50.824;4.718;2023-02-17T06:41:40;19.23;;;12.10;;
12707;SDS011;6418;50.824;4.718;2023-02-17T06:44:07;23.80;;;15.57;;
12707;SDS011;6418;50.824;4.718;2023-02-17T06:46:35;25.43;;;16.33;;
12707;SDS011;6418;50.824;4.718;2023-02-17T06:49:02;27.03;;;16.83;;
12707;SDS011;6418;50.824;4.718;2023-02-17T06:51:30;29.73;;;17.03;;
12707;SDS011;6418;50.824;4.718;2023-02-17T06:53:57;32.43;;;20.10;;
12707;SDS011;6418;50.824;4.718;2023-02-17T06:56:24;32.33;;;19.77;;
12707;SDS011;6418;50.824;4.718;2023-02-17T06:58:51;35.10;;;21.10;;
12707;SDS011;6418;50.824;4.718;2023-02-17T07:01:19;29.47;;;18.17;;
12707;SDS011;6418;50.824;4.718;2023-02-17T07:03:49;33.20;;;19.90;;
12707;SDS011;6418;50.824;4.718;2023-02-17T07:06:19;37.70;;;20.23;;
12707;SDS011;6418;50.824;4.718;2023-02-17T07:08:47;29.17;;;17.30;;
12707;SDS011;6418;50.824;4.718;2023-02-17T07:11:14;28.17;;;17.70;;
12707;SDS011;6418;50.824;4.718;2023-02-17T07:13:42;30.03;;;18.00;;
12707;SDS011;6418;50.824;4.718;2023-02-17T07:16:10;26.30;;;16.47;;
12707;SDS011;6418;50.824;4.718;2023-02-17T07:18:38;23.10;;;14.00;;
12707;SDS011;6418;50.824;4.718;2023-02-17T07:21:07;22.53;;;14.13;;
12707;SDS011;6418;50.824;4.718;2023-02-17T07:23:34;25.23;;;13.47;;
12707;SDS011;6418;50.824;4.718;2023-02-17T07:26:02;23.73;;;14.50;;
12707;SDS011;6418;50.824;4.718;2023-02-17T07:28:30;18.37;;;12.20;;
12707;SDS011;6418;50.824;4.718;2023-02-17T07:31:03;22.20;;;13.27;;
12707;SDS011;6418;50.824;4.718;2023-02-17T07:33:30;23.80;;;14.07;;
12707;SDS011;6418;50.824;4.718;2023-02-17T07:35:57;23.90;;;15.53;;
12707;SDS011;6418;50.824;4.718;2023-02-17T07:38:26;25.30;;;15.23;;
12707;SDS011;6418;50.824;4.718;2023-02-17T07:40:53;25.30;;;14.87;;
12707;SDS011;6418;50.824;4.718;2023-02-17T07:43:20;23.90;;;15.13;;
12707;SDS011;6418;50.824;4.718;2023-02-17T07:45:46;23.03;;;14.40;;
12707;SDS011;6418;50.824;4.718;2023-02-17T07:48:13;22.93;;;14.30;;
12707;SDS011;6418;50.824;4.718;2023-02-17T07:50:40;22.47;;;13.80;;
12707;SDS011;6418;50.824;4.718;2023-02-17T07:53:10;21.80;;;13.40;;
12707;SDS011;6418;50.824;4.718;2023-02-17T07:55:38;24.73;;;14.50;;
12707;SDS011;6418;50.824;4.718;2023-02-17T07:58:05;22.43;;;14.37;;
12707;SDS011;6418;50.824;4.718;2023-02-17T08:00:32;21.30;;;13.13;;
12707;SDS011;6418;50.824;4.718;2023-02-17T08:02:59;23.33;;;13.63;;
12707;SDS011;6418;50.824;4.718;2023-02-17T08:05:26;23.57;;;13.93;;
12707;SDS011;6418;50.824;4.718;2023-02-17T08:07:53;23.90;;;14.00;;
12707;SDS011;6418;50.824;4.718;2023-02-17T08:10:35;23.73;;;14.90;;
12707;SDS011;6418;50.824;4.718;2023-02-17T08:13:21;25.80;;;15.50;;
12707;SDS011;6418;50.824;4.718;2023-02-17T08:15:48;27.93;;;16.03;;
12707;SDS011;6418;50.824;4.718;2023-02-17T08:18:15;23.17;;;14.00;;
12707;SDS011;6418;50.824;4.718;2023-02-17T08:20:42;27.80;;;16.10;;
12707;SDS011;6418;50.824;4.718;2023-02-17T08:23:09;29.53;;;16.47;;
12707;SDS011;6418;50.824;4.718;2023-02-17T08:25:36;25.60;;;15.53;;
12707;SDS011;6418;50.824;4.718;2023-02-17T08:28:04;26.30;;;14.97;;
12707;SDS011;6418;50.824;4.718;2023-02-17T08:30:34;24.67;;;15.17;;
12707;SDS011;6418;50.824;4.718;2023-02-17T08:33:04;24.47;;;14.30;;
12707;SDS011;6418;50.824;4.718;2023-02-17T08:35:31;24.13;;;14.10;;
12707;SDS011;6418;50.824;4.718;2023-02-17T08:37:58;24.53;;;14.40;;
12707;SDS011;6418;50.824;4.718;2023-02-17T08:40:28;23.80;;;13.50;;
12707;SDS011;6418;50.824;4.718;2023-02-17T08:42:55;23.83;;;13.63;;
12707;SDS011;6418;50.824;4.718;2023-02-17T08:45:22;23.87;;;13.67;;
12707;SDS011;6418;50.824;4.718;2023-02-17T08:47:51;22.23;;;13.00;;
12707;SDS011;6418;50.824;4.718;2023-02-17T08:50:18;23.03;;;13.77;;
12707;SDS011;6418;50.824;4.718;2023-02-17T08:52:45;25.03;;;14.27;;
12707;SDS011;6418;50.824;4.718;2023-02-17T08:55:12;26.57;;;14.70;;
12707;SDS011;6418;50.824;4.718;2023-02-17T08:57:42;24.70;;;15.03;;
12707;SDS011;6418;50.824;4.718;2023-02-17T09:00:10;26.07;;;15.10;;
12707;SDS011;6418;50.824;4.718;2023-02-17T09:02:37;25.90;;;15.20;;
12707;SDS011;6418;50.824;4.718;2023-02-17T09:05:08;25.53;;;13.87;;
12707;SDS011;6418;50.824;4.718;2023-02-17T09:07:36;25.77;;;14.30;;
12707;SDS011;6418;50.824;4.718;2023-02-17T09:10:04;21.80;;;13.70;;
12707;SDS011;6418;50.824;4.718;2023-02-17T09:12:32;23.30;;;13.37;;
12707;SDS011;6418;50.824;4.718;2023-02-17T09:15:00;23.47;;;12.87;;
12707;SDS011;6418;50.824;4.718;2023-02-17T09:17:27;21.67;;;12.87;;
12707;SDS011;6418;50.824;4.718;2023-02-17T09:19:54;23.80;;;13.00;;
12707;SDS011;6418;50.824;4.718;2023-02-17T09:22:22;21.47;;;12.87;;
12707;SDS011;6418;50.824;4.718;2023-02-17T09:24:49;23.20;;;13.33;;
12707;SDS011;6418;50.824;4.718;2023-02-17T09:27:16;23.93;;;13.27;;
12707;SDS011;6418;50.824;4.718;2023-02-17T09:29:43;21.97;;;12.43;;
12707;SDS011;6418;50.824;4.718;2023-02-17T09:32:10;21.27;;;12.60;;
12707;SDS011;6418;50.824;4.718;2023-02-17T09:34:38;18.17;;;11.83;;
12707;SDS011;6418;50.824;4.718;2023-02-17T09:37:08;15.93;;;9.63;;
12707;SDS011;6418;50.824;4.718;2023-02-17T09:39:37;14.20;;;7.90;;
12707;SDS011;6418;50.824;4.718;2023-02-17T09:42:04;13.80;;;7.87;;
12707;SDS011;6418;50.824;4.718;2023-02-17T09:44:34;13.33;;;7.37;;
12707;SDS011;6418;50.824;4.718;2023-02-17T09:47:08;12.17;;;6.53;;
12707;SDS011;6418;50.824;4.718;2023-02-17T09:49:40;12.33;;;6.43;;
12707;SDS011;6418;50.824;4.718;2023-02-17T09:52:11;11.03;;;5.93;;
12707;SDS011;6418;50.824;4.718;2023-02-17T09:54:46;12.60;;;6.80;;
12707;SDS011;6418;50.824;4.718;2023-02-17T09:57:20;12.00;;;5.97;;
12707;SDS011;6418;50.824;4.718;2023-02-17T09:59:53;12.27;;;6.30;;
12707;SDS011;6418;50.824;4.718;2023-02-17T10:02:24;10.07;;;5.80;;
12707;SDS011;6418;50.824;4.718;2023-02-17T10:04:58;12.13;;;6.10;;
12707;SDS011;6418;50.824;4.718;2023-02-17T10:07:31;9.73;;;5.70;;
12707;SDS011;6418;50.824;4.718;2023-02-17T10:10:06;10.50;;;5.90;;
12707;SDS011;6418;50.824;4.718;2023-02-17T10:12:37;10.70;;;5.90;;
12707;SDS011;6418;50.824;4.718;2023-02-17T10:15:09;10.80;;;5.50;;
12707;SDS011;6418;50.824;4.718;2023-02-17T10:17:43;11.33;;;5.70;;
12707;SDS011;6418;50.824;4.718;2023-02-17T10:20:15;10.23;;;5.63;;
12707;SDS011;6418;50.824;4.718;2023-02-17T10:22:46;8.63;;;5.03;;
12707;SDS011;6418;50.824;4.718;2023-02-17T10:25:21;10.60;;;5.40;;
12707;SDS011;6418;50.824;4.718;2023-02-17T10:27:58;11.63;;;6.43;;
12707;SDS011;6418;50.824;4.718;2023-02-17T10:30:33;11.67;;;6.23;;
12707;SDS011;6418;50.824;4.718;2023-02-17T10:33:10;10.23;;;5.50;;
12707;SDS011;6418;50.824;4.718;2023-02-17T10:38:33;9.73;;;5.20;;
12707;SDS011;6418;50.824;4.718;2023-02-17T10:41:10;9.93;;;4.90;;
12707;SDS011;6418;50.824;4.718;2023-02-17T10:43:40;8.37;;;4.90;;
12707;SDS011;6418;50.824;4.718;2023-02-17T10:46:13;10.17;;;4.70;;
12707;SDS011;6418;50.824;4.718;2023-02-17T10:48:43;9.90;;;5.17;;
12707;SDS011;6418;50.824;4.718;2023-02-17T10:51:13;7.93;;;4.50;;
12707;SDS011;6418;50.824;4.718;2023-02-17T10:53:43;8.00;;;4.37;;
12707;SDS011;6418;50.824;4.718;2023-02-17T10:56:15;8.83;;;4.70;;
12707;SDS011;6418;50.824;4.718;2023-02-17T10:58:47;7.67;;;4.30;;
12707;SDS011;6418;50.824;4.718;2023-02-17T11:01:19;7.50;;;4.37;;
12707;SDS011;6418;50.824;4.718;2023-02-17T11:03:57;8.40;;;4.40;;
12707;SDS011;6418;50.824;4.718;2023-02-17T11:06:26;8.87;;;4.40;;
12707;SDS011;6418;50.824;4.718;2023-02-17T11:08:58;7.20;;;4.20;;
12707;SDS011;6418;50.824;4.718;2023-02-17T11:11:31;6.77;;;4.20;;
12707;SDS011;6418;50.824;4.718;2023-02-17T11:14:03;6.63;;;3.93;;
12707;SDS011;6418;50.824;4.718;2023-02-17T11:16:38;5.17;;;3.70;;
12707;SDS011;6418;50.824;4.718;2023-02-17T11:19:17;5.10;;;3.50;;
12707;SDS011;6418;50.824;4.718;2023-02-17T11:21:47;4.97;;;2.90;;
12707;SDS011;6418;50.824;4.718;2023-02-17T11:24:16;4.47;;;2.80;;
12707;SDS011;6418;50.824;4.718;2023-02-17T11:26:53;4.73;;;3.00;;
12707;SDS011;6418;50.824;4.718;2023-02-17T11:29:21;3.20;;;2.90;;
12707;SDS011;6418;50.824;4.718;2023-02-17T11:31:52;4.80;;;2.93;;
12707;SDS011;6418;50.824;4.718;2023-02-17T11:34:22;5.97;;;3.13;;
12707;SDS011;6418;50.824;4.718;2023-02-17T11:36:56;3.33;;;2.77;;
12707;SDS011;6418;50.824;4.718;2023-02-17T11:39:25;4.47;;;2.80;;
12707;SDS011;6418;50.824;4.718;2023-02-17T11:41:53;4.03;;;2.77;;
12707;SDS011;6418;50.824;4.718;2023-02-17T11:44:22;5.33;;;3.07;;
12707;SDS011;6418;50.824;4.718;2023-02-17T11:46:53;6.83;;;2.93;;
12707;SDS011;6418;50.824;4.718;2023-02-17T11:49:51;4.67;;;2.80;;
12707;SDS011;6418;50.824;4.718;2023-02-17T11:52:39;4.37;;;2.87;;
12707;SDS011;6418;50.824;4.718;2023-02-17T11:55:21;5.30;;;3.20;;
12707;SDS011;6418;50.824;4.718;2023-02-17T11:58:01;4.10;;;3.00;;
12707;SDS011;6418;50.824;4.718;2023-02-17T12:00:42;8.03;;;2.83;;
12707;SDS011;6418;50.824;4.718;2023-02-17T12:03:34;5.13;;;3.00;;
12707;SDS011;6418;50.824;4.718;2023-02-17T12:06:20;6.63;;;3.57;;
12707;SDS011;6418;50.824;4.718;2023-02-17T12:08:56;3.53;;;3.23;;
12707;SDS011;6418;50.824;4.718;2023-02-17T12:11:36;8.07;;;3.70;;
12707;SDS011;6418;50.824;4.718;2023-02-17T12:14:18;7.33;;;3.03;;
12707;SDS011;6418;50.824;4.718;2023-02-17T12:16:58;3.73;;;3.30;;
12707;SDS011;6418;50.824;4.718;2023-02-17T12:19:40;6.13;;;3.47;;
12707;SDS011;6418;50.824;4.718;2023-02-17T12:22:16;5.30;;;3.50;;
12707;SDS011;6418;50.824;4.718;2023-02-17T12:24:48;5.63;;;3.63;;
12707;SDS011;6418;50.824;4.718;2023-02-17T12:27:29;6.70;;;3.80;;
12707;SDS011;6418;50.824;4.718;2023-02-17T12:30:13;10.87;;;3.73;;
12707;SDS011;6418;50.824;4.718;2023-02-17T12:32:55;5.43;;;3.13;;
12707;SDS011;6418;50.824;4.718;2023-02-17T12:35:37;5.17;;;3.40;;
12707;SDS011;6418;50.824;4.718;2023-02-17T12:38:10;4.03;;;3.40;;
12707;SDS011;6418;50.824;4.718;2023-02-17T12:40:42;5.23;;;3.30;;
12707;SDS011;6418;50.824;4.718;2023-02-17T12:43:16;6.70;;;3.47;;
12707;SDS011;6418;50.824;4.718;2023-02-17T12:45:51;3.53;;;3.23;;
12707;SDS011;6418;50.824;4.718;2023-02-17T12:48:21;4.07;;;3.30;;
12707;SDS011;6418;50.824;4.718;2023-02-17T12:50:55;5.47;;;3.70;;
12707;SDS011;6418;50.824;4.718;2023-02-17T12:53:38;8.90;;;4.07;;
12707;SDS011;6418;50.824;4.718;2023-02-17T12:56:21;7.07;;;4.17;;
12707;SDS011;6418;50.824;4.718;2023-02-17T12:59:14;7.17;;;3.83;;
12707;SDS011;6418;50.824;4.718;2023-02-17T13:01:49;11.13;;;4.30;;
12707;SDS011;6418;50.824;4.718;2023-02-17T13:04:21;8.03;;;4.27;;
12707;SDS011;6418;50.824;4.718;2023-02-17T13:06:52;6.23;;;3.97;;
12707;SDS011;6418;50.824;4.718;2023-02-17T13:09:28;4.07;;;3.63;;
12707;SDS011;6418;50.824;4.718;2023-02-17T13:12:28;8.90;;;3.50;;
12707;SDS011;6418;50.824;4.718;2023-02-17T13:15:00;5.17;;;3.27;;
12707;SDS011;6418;50.824;4.718;2023-02-17T13:17:31;4.87;;;3.40;;
12707;SDS011;6418;50.824;4.718;2023-02-17T13:20:22;4.67;;;3.03;;
12707;SDS011;6418;50.824;4.718;2023-02-17T13:23:02;7.93;;;3.40;;
12707;SDS011;6418;50.824;4.718;2023-02-17T13:25:32;6.07;;;3.80;;
12707;SDS011;6418;50.824;4.718;2023-02-17T13:28:01;5.73;;;3.90;;
12707;SDS011;6418;50.824;4.718;2023-02-17T13:30:41;7.83;;;4.00;;
12707;SDS011;6418;50.824;4.718;2023-02-17T13:33:26;8.57;;;4.40;;
12707;SDS011;6418;50.824;4.718;2023-02-17T13:35:55;7.53;;;4.20;;
12707;SDS011;6418;50.824;4.718;2023-02-17T13:38:26;6.67;;;4.27;;
12707;SDS011;6418;50.824;4.718;2023-02-17T13:40:57;5.20;;;3.73;;
12707;SDS011;6418;50.824;4.718;2023-02-17T13:43:26;5.50;;;3.40;;
12707;SDS011;6418;50.824;4.718;2023-02-17T13:45:56;5.60;;;3.10;;
12707;SDS011;6418;50.824;4.718;2023-02-17T13:48:29;6.10;;;3.27;;
12707;SDS011;6418;50.824;4.718;2023-02-17T13:50:57;5.87;;;3.30;;
12707;SDS011;6418;50.824;4.718;2023-02-17T13:53:26;5.00;;;3.37;;
12707;SDS011;6418;50.824;4.718;2023-02-17T13:55:56;4.03;;;2.90;;
12707;SDS011;6418;50.824;4.718;2023-02-17T13:58:25;4.40;;;2.43;;
12707;SDS011;6418;50.824;4.718;2023-02-17T14:00:54;4.90;;;2.83;;
12707;SDS011;6418;50.824;4.718;2023-02-17T14:03:23;2.77;;;2.57;;
12707;SDS011;6418;50.824;4.718;2023-02-17T14:05:53;4.17;;;2.87;;
12707;SDS011;6418;50.824;4.718;2023-02-17T14:08:26;5.23;;;3.10;;
12707;SDS011;6418;50.824;4.718;2023-02-17T14:10:57;4.17;;;2.53;;
12707;SDS011;6418;50.824;4.718;2023-02-17T14:13:31;5.63;;;2.70;;
12707;SDS011;6418;50.824;4.718;2023-02-17T14:15:59;2.50;;;2.30;;
12707;SDS011;6418;50.824;4.718;2023-02-17T14:18:28;4.77;;;2.00;;
12707;SDS011;6418;50.824;4.718;2023-02-17T14:21:02;7.10;;;2.60;;
12707;SDS011;6418;50.824;4.718;2023-02-17T14:23:40;2.20;;;2.10;;
12707;SDS011;6418;50.824;4.718;2023-02-17T14:26:10;2.33;;;2.00;;
12707;SDS011;6418;50.824;4.718;2023-02-17T14:28:39;2.77;;;1.83;;
12707;SDS011;6418;50.824;4.718;2023-02-17T14:31:18;2.80;;;2.33;;
12707;SDS011;6418;50.824;4.718;2023-02-17T14:33:50;4.30;;;2.13;;
12707;SDS011;6418;50.824;4.718;2023-02-17T14:36:25;2.83;;;2.63;;
12707;SDS011;6418;50.824;4.718;2023-02-17T14:38:54;5.27;;;2.87;;
12707;SDS011;6418;50.824;4.718;2023-02-17T14:41:22;4.43;;;2.63;;
12707;SDS011;6418;50.824;4.718;2023-02-17T14:43:50;3.73;;;2.53;;
12707;SDS011;6418;50.824;4.718;2023-02-17T14:46:17;2.90;;;2.33;;
12707;SDS011;6418;50.824;4.718;2023-02-17T14:48:44;4.93;;;3.20;;
12707;SDS011;6418;50.824;4.718;2023-02-17T14:51:12;4.50;;;2.57;;
12707;SDS011;6418;50.824;4.718;2023-02-17T14:53:44;7.70;;;3.27;;
12707;SDS011;6418;50.824;4.718;2023-02-17T14:56:14;4.47;;;3.23;;
12707;SDS011;6418;50.824;4.718;2023-02-17T14:58:44;6.87;;;3.40;;
12707;SDS011;6418;50.824;4.718;2023-02-17T15:01:12;5.27;;;3.50;;
12707;SDS011;6418;50.824;4.718;2023-02-17T15:03:40;4.67;;;3.40;;
12707;SDS011;6418;50.824;4.718;2023-02-17T15:06:09;4.90;;;3.40;;
12707;SDS011;6418;50.824;4.718;2023-02-17T15:08:38;5.43;;;3.70;;
12707;SDS011;6418;50.824;4.718;2023-02-17T15:11:09;6.60;;;3.87;;